Aspen, Colorado
Current Conditions -  °F | °C
As of 2:53 PM on Thursday 27 Nov 2014 (Local Time) from KASE Reporting Station
Clear Clear  
Wind Chill: 38°   Ceiling: Unl
Heat Index: 42°   Visibility: 10mi
Dew Point: 24°   Wind: 7mph
Humidity: 49%   Direction: 330°NNW
Pressure: 30.36"   Gusts: NA
Location:  39.19°N, 106.81°W
Report Text: KASE 272153Z 33006KT 10SM CLR 06/M04 A3036 RMK AO2 SLP266 T00561044
Loading
Personal Weather Stations






























Interactive Weather Map New forecast layout! Learn more

10-Day Weather Forecast

Advertisements
Track Severe Weather on mobile